createdAt,value
2024-01-01T00:00:23.485Z,93.59
2024-01-01T00:10:31.882Z,92.87
2024-01-01T00:15:35.954Z,93.21
2024-01-01T00:20:40.247Z,92.62
2024-01-01T00:25:44.343Z,90.82
2024-01-01T00:30:48.486Z,91.06
2024-01-01T00:35:52.636Z,89.27
2024-01-01T00:40:56.888Z,87.64
2024-01-01T00:46:01.001Z,86.58
2024-01-01T00:51:05.191Z,86.28
2024-01-01T00:56:09.302Z,85.65
2024-01-01T01:01:13.540Z,85.98
2024-01-01T01:06:23.844Z,86.85
2024-01-01T01:11:21.775Z,86.87
2024-01-01T01:16:25.952Z,86.49
2024-01-01T01:21:30.134Z,85.82
2024-01-01T01:26:34.245Z,84.94
2024-01-01T01:31:38.438Z,84.02
2024-01-01T01:36:42.591Z,83.45
2024-01-01T01:41:46.802Z,83.62
2024-01-01T01:46:52.729Z,84.23
2024-01-01T01:51:55.077Z,84.50
2024-01-01T01:56:59.253Z,82.86
2024-01-01T02:02:03.488Z,82.64
2024-01-01T02:07:07.610Z,83.82
2024-01-01T02:12:11.734Z,83.87
2024-01-01T02:17:15.898Z,82.81
2024-01-01T02:22:20.045Z,84.90
2024-01-01T02:27:24.224Z,84.96
2024-01-01T02:32:28.415Z,83.60
2024-01-01T02:37:32.575Z,86.02
2024-01-01T02:42:36.687Z,88.47
2024-01-01T02:47:41.017Z,92.30
2024-01-01T02:52:45.059Z,95.33
2024-01-01T02:57:49.175Z,100.00
2024-01-01T03:02:53.336Z,100.00
2024-01-01T03:07:57.596Z,100.00
2024-01-01T03:13:01.722Z,100.00
2024-01-01T03:18:06.317Z,100.00
2024-01-01T03:23:10.101Z,100.00
2024-01-01T03:28:14.166Z,100.00
2024-01-01T03:33:18.419Z,100.00
2024-01-01T03:38:22.610Z,100.00
2024-01-01T03:43:26.664Z,100.00
2024-01-01T03:48:30.932Z,100.00
2024-01-01T03:53:34.996Z,100.00
2024-01-01T03:58:39.209Z,100.00
2024-01-01T04:03:43.424Z,100.00
2024-01-01T04:08:47.438Z,100.00
2024-01-01T04:13:51.728Z,100.00
2024-01-01T04:18:55.897Z,100.00
2024-01-01T04:23:59.912Z,100.00
2024-01-01T04:29:04.204Z,100.00
2024-01-01T04:34:08.283Z,100.00
2024-01-01T04:39:12.488Z,100.00
2024-01-01T04:44:16.690Z,100.00
2024-01-01T04:49:18.883Z,100.00
2024-01-01T04:54:23.034Z,100.00
2024-01-01T04:59:27.240Z,100.00
2024-01-01T05:04:31.377Z,99.58
2024-01-01T05:09:35.527Z,98.31
2024-01-01T05:14:39.690Z,96.23
2024-01-01T05:19:43.871Z,95.18
2024-01-01T05:24:48.019Z,92.99
2024-01-01T05:29:52.171Z,93.49
2024-01-01T05:34:56.354Z,92.77
2024-01-01T05:40:00.588Z,90.92
2024-01-01T05:45:04.673Z,90.84
2024-01-01T05:50:08.918Z,91.06
2024-01-01T05:55:12.995Z,91.32
2024-01-01T06:00:17.126Z,89.28
2024-01-01T06:05:21.376Z,90.23
2024-01-01T06:10:25.494Z,89.47
2024-01-01T06:15:29.655Z,90.21
2024-01-01T06:20:33.787Z,88.88
2024-01-01T06:25:37.982Z,88.43
2024-01-01T06:30:42.184Z,88.51
2024-01-01T06:35:46.280Z,88.97
2024-01-01T06:40:50.471Z,87.56
2024-01-01T06:45:54.581Z,88.69
2024-01-01T06:50:58.790Z,88.90
2024-01-01T06:56:02.947Z,88.79
2024-01-01T07:01:07.140Z,89.44
2024-01-01T07:06:11.316Z,88.71
2024-01-01T07:11:15.506Z,91.03
2024-01-01T07:16:19.597Z,94.89
2024-01-01T07:21:23.784Z,98.48
2024-01-01T07:26:27.911Z,100.00
2024-01-01T07:31:32.088Z,100.00
2024-01-01T07:36:36.212Z,100.00
2024-01-01T07:41:40.384Z,100.00
2024-01-01T07:46:44.561Z,100.00
2024-01-01T07:51:48.728Z,100.00
2024-01-01T07:56:52.893Z,100.00
2024-01-01T08:01:57.071Z,100.00
2024-01-01T08:07:01.221Z,100.00
2024-01-01T08:12:05.368Z,100.00
2024-01-01T08:17:09.618Z,100.00
2024-01-01T08:22:13.730Z,100.00
2024-01-01T08:27:17.873Z,100.00
2024-01-01T08:32:22.103Z,100.00
2024-01-01T08:37:26.204Z,100.00
2024-01-01T08:42:30.358Z,99.49
2024-01-01T08:47:34.629Z,98.59
2024-01-01T08:52:38.693Z,97.82
2024-01-01T08:57:42.826Z,97.96
2024-01-01T09:02:47.005Z,98.18
2024-01-01T09:07:51.198Z,97.88
2024-01-01T09:12:55.318Z,98.20
2024-01-01T09:17:59.705Z,97.43
2024-01-01T09:23:03.685Z,97.81
2024-01-01T09:28:08.088Z,97.58
2024-01-01T09:33:12.039Z,98.18
2024-01-01T09:38:17.665Z,97.57
2024-01-01T09:43:20.297Z,97.01
2024-01-01T09:48:24.633Z,98.07
2024-01-01T09:53:28.679Z,98.05
2024-01-01T09:58:32.763Z,98.59
2024-01-01T10:03:36.928Z,98.51
2024-01-01T10:08:41.103Z,98.65
2024-01-01T10:13:45.339Z,98.38
2024-01-01T10:18:47.685Z,97.67
2024-01-01T10:23:57.692Z,97.67
2024-01-01T10:28:55.930Z,97.52
2024-01-01T10:34:00.106Z,97.61
2024-01-01T10:39:04.199Z,97.60
2024-01-01T10:44:08.428Z,97.02
2024-01-01T10:49:10.759Z,96.36
2024-01-01T10:54:14.796Z,96.48
2024-01-01T10:59:19.129Z,96.19
2024-01-01T11:04:23.193Z,96.03
2024-01-01T11:09:27.306Z,95.09
2024-01-01T11:14:31.466Z,94.02
2024-01-01T11:19:35.657Z,94.21
2024-01-01T11:24:39.758Z,94.57
2024-01-01T11:29:43.943Z,93.81
2024-01-01T11:34:54.126Z,94.26
2024-01-01T11:39:52.224Z,93.75
2024-01-01T11:44:56.427Z,93.98
2024-01-01T11:50:00.664Z,94.04
2024-01-01T11:55:04.741Z,95.56
2024-01-01T12:00:08.936Z,96.36
2024-01-01T12:05:13.246Z,96.65
2024-01-01T12:10:17.260Z,94.57
2024-01-01T12:15:21.426Z,94.24
2024-01-01T12:20:25.630Z,93.40
2024-01-01T12:25:29.713Z,94.29
2024-01-01T12:30:34.110Z,93.48
2024-01-01T12:35:38.072Z,93.25
2024-01-01T12:40:42.247Z,92.21
2024-01-01T12:45:46.351Z,92.19
2024-01-01T12:50:50.605Z,92.43
2024-01-01T12:55:54.726Z,93.00
2024-01-01T13:00:58.919Z,92.35
2024-01-01T13:06:03.137Z,92.37
2024-01-01T13:11:07.302Z,92.06
2024-01-01T13:16:11.333Z,93.16
2024-01-01T13:21:15.548Z,92.65
2024-01-01T13:26:19.707Z,91.88
2024-01-01T13:31:23.815Z,92.10
2024-01-01T13:36:28.026Z,91.42
2024-01-01T13:41:32.149Z,91.60
2024-01-01T13:46:36.350Z,90.79
2024-01-01T13:51:40.500Z,91.24
2024-01-01T13:56:44.694Z,91.19
2024-01-01T14:01:49.000Z,91.22
2024-01-01T14:06:53.018Z,90.69
2024-01-01T14:11:57.153Z,91.47
2024-01-01T14:17:01.377Z,90.60
2024-01-01T14:22:05.467Z,89.95
2024-01-01T14:27:09.631Z,89.68
2024-01-01T14:32:13.854Z,89.72
2024-01-01T14:37:17.969Z,88.60
2024-01-01T14:42:22.136Z,89.45
2024-01-01T14:47:26.501Z,88.71
2024-01-01T14:52:30.475Z,90.28
2024-01-01T14:57:34.644Z,90.66
2024-01-01T15:02:38.806Z,90.68
2024-01-01T15:07:43.006Z,90.54
2024-01-01T15:12:47.123Z,90.65
2024-01-01T15:17:51.410Z,90.17
2024-01-01T15:22:55.481Z,90.69
2024-01-01T15:27:59.610Z,89.46
2024-01-01T15:33:03.908Z,89.53
2024-01-01T15:38:07.924Z,89.48
2024-01-01T15:43:12.073Z,90.01
2024-01-01T15:48:17.402Z,90.70
2024-01-01T15:53:20.398Z,91.28
2024-01-01T15:58:24.547Z,91.19
2024-01-01T16:03:28.741Z,92.42
2024-01-01T16:08:32.876Z,92.18
2024-01-01T16:13:37.029Z,92.48
2024-01-01T16:18:39.392Z,93.14
2024-01-01T16:23:43.558Z,93.60
2024-01-01T16:28:47.657Z,93.35
2024-01-01T16:33:51.822Z,93.38
2024-01-01T16:38:55.967Z,92.69
2024-01-01T16:44:00.200Z,94.51
2024-01-01T16:49:04.335Z,95.40
2024-01-01T16:54:08.452Z,95.93
2024-01-01T16:59:12.688Z,95.78
2024-01-01T17:04:16.791Z,95.65
2024-01-01T17:09:23.919Z,96.77
2024-01-01T17:14:25.215Z,96.36
2024-01-01T17:19:29.308Z,97.97
2024-01-01T17:24:33.471Z,97.50
2024-01-01T17:29:37.633Z,97.44
2024-01-01T17:34:41.762Z,98.21
2024-01-01T17:39:45.942Z,98.04
2024-01-01T17:44:50.112Z,98.27
2024-01-01T17:49:54.296Z,98.42
2024-01-01T17:54:58.551Z,98.81
2024-01-01T18:00:02.576Z,97.93
2024-01-01T18:05:06.875Z,97.93
2024-01-01T18:10:10.931Z,98.05
2024-01-01T18:15:15.051Z,97.97
2024-01-01T18:20:19.258Z,98.09
2024-01-01T18:25:23.451Z,98.16
2024-01-01T18:30:27.581Z,98.02
2024-01-01T18:35:31.750Z,97.69
2024-01-01T18:40:39.894Z,97.40
2024-01-01T18:45:40.069Z,96.86
2024-01-01T18:50:44.293Z,96.56
2024-01-01T18:55:48.390Z,97.00
2024-01-01T19:00:52.578Z,96.95
2024-01-01T19:05:56.754Z,96.92
2024-01-01T19:11:00.882Z,96.75
2024-01-01T19:16:05.021Z,97.18
2024-01-01T19:21:09.201Z,96.58
2024-01-01T19:26:13.493Z,95.76
2024-01-01T19:31:17.501Z,95.36
2024-01-01T19:36:21.672Z,95.44
2024-01-01T19:41:25.857Z,95.45
2024-01-01T19:46:29.980Z,95.07
2024-01-01T19:51:34.159Z,94.24
2024-01-01T19:56:38.336Z,94.68
2024-01-01T20:01:42.517Z,93.87
2024-01-01T20:06:46.675Z,93.88
2024-01-01T20:11:50.837Z,93.78
2024-01-01T20:16:55.062Z,93.77
2024-01-01T20:21:59.123Z,93.48
2024-01-01T20:27:03.323Z,93.15
2024-01-01T20:32:07.571Z,93.29
2024-01-01T20:37:11.645Z,92.94
2024-01-01T20:42:15.771Z,93.44
2024-01-01T20:47:20.140Z,93.06
2024-01-01T20:52:28.149Z,93.64
2024-01-01T20:57:28.276Z,94.69
2024-01-01T21:02:32.500Z,94.40
2024-01-01T21:07:36.590Z,95.58
2024-01-01T21:12:40.837Z,96.83
2024-01-01T21:17:45.042Z,98.53
2024-01-01T21:22:49.166Z,100.00
2024-01-01T21:27:53.350Z,100.00
2024-01-01T21:32:57.440Z,100.00
2024-01-01T21:38:01.584Z,100.00
2024-01-01T21:43:05.993Z,100.00
2024-01-01T21:48:08.054Z,100.00
2024-01-01T21:53:12.232Z,100.00
2024-01-01T21:58:16.315Z,100.00
2024-01-01T22:03:20.541Z,100.00
2024-01-01T22:08:24.674Z,100.00
2024-01-01T22:13:28.860Z,100.00
2024-01-01T22:18:33.060Z,100.00
2024-01-01T22:23:37.198Z,100.00
2024-01-01T22:33:45.544Z,100.00
2024-01-01T22:38:49.679Z,100.00
2024-01-01T22:43:53.938Z,100.00
2024-01-01T22:48:58.057Z,100.00
2024-01-01T22:54:02.118Z,100.00
2024-01-01T22:59:06.364Z,100.00
2024-01-01T23:04:10.467Z,100.00
2024-01-01T23:09:14.627Z,100.00
2024-01-01T23:14:18.844Z,100.00
2024-01-01T23:19:23.002Z,100.00
2024-01-01T23:24:27.119Z,100.00
2024-01-01T23:29:31.340Z,100.00
2024-01-01T23:34:35.513Z,100.00
2024-01-01T23:39:39.602Z,100.00
2024-01-01T23:44:43.783Z,100.00
2024-01-01T23:49:47.944Z,100.00
2024-01-01T23:54:52.067Z,100.00
2024-01-01T23:59:56.251Z,100.00
